Time;durP1;ratioP1;P1;durP2;ratioP2;P2;SDS_P1;SDS_P2;PMS_P1;PMS_P2;Temp;Humidity;BMP_temperature;BMP_pressure;BME280_temperature;BME280_humidity;BME280_pressure;Samples;Min_cycle;Max_cycle;Signal;HPM_P1;HPM_P2
2022/07/18 00:01:58;;;;;;;5.38;5.18;;;;;;;16.25;66.70;101814.56;6112880;23;20014;-71
2022/07/18 00:04:25;;;;;;;6.10;5.80;;;;;;;16.59;66.81;101860.28;6084069;23;20012;-72
2022/07/18 00:06:53;;;;;;;4.93;4.72;;;;;;;16.42;68.20;101874.53;6115520;23;20675;-71
2022/07/18 00:09:22;;;;;;;6.53;6.22;;;;;;;16.36;68.17;101872.22;6100330;23;20459;-73
2022/07/18 00:11:50;;;;;;;5.10;4.90;;;;;;;15.89;67.59;101821.03;6091693;23;20075;-71
2022/07/18 00:14:18;;;;;;;6.30;6.00;;;;;;;15.59;68.36;101780.38;6108770;23;20609;-70
2022/07/18 00:16:44;;;;;;;4.80;4.60;;;;;;;14.51;69.62;101641.69;6106718;23;20335;-71
2022/07/18 00:19:11;;;;;;;4.97;4.78;;;;;;;14.41;70.62;101717.03;6114230;23;20025;-71
2022/07/18 00:21:37;;;;;;;5.20;5.00;;;;;;;15.29;70.64;101786.44;6085869;23;20081;-71
2022/07/18 00:24:04;;;;;;;5.10;4.90;;;;;;;15.88;71.88;101848.44;6115448;23;20032;-73
2022/07/18 00:26:30;;;;;;;5.55;5.25;;;;;;;15.80;71.87;101881.59;6104547;23;20014;-71
2022/07/18 00:28:57;;;;;;;5.20;5.00;;;;;;;15.52;71.53;101844.22;6084781;23;20013;-71
2022/07/18 00:31:24;;;;;;;5.88;5.60;;;;;;;15.89;71.60;101928.72;6106007;23;20030;-70
2022/07/18 00:33:50;;;;;;;4.95;4.75;;;;;;;15.88;71.74;101837.88;6110068;23;20344;-71
2022/07/18 00:36:17;;;;;;;6.30;6.00;;;;;;;15.59;71.92;101843.88;6093053;23;20045;-71
2022/07/18 00:38:43;;;;;;;5.28;5.07;;;;;;;15.84;72.01;101881.34;6109989;23;20576;-72
2022/07/18 00:41:14;;;;;;;4.80;4.60;;;;;;;15.42;71.97;101808.63;6095718;23;20021;-71
2022/07/18 00:43:41;;;;;;;5.07;4.88;;;;;;;15.91;72.06;101898.56;6106798;23;20124;-72
2022/07/18 00:46:07;;;;;;;4.93;4.72;;;;;;;15.89;71.74;101903.09;6108157;23;20033;-71
2022/07/18 00:48:34;;;;;;;5.00;4.70;;;;;;;15.68;71.59;101831.00;6107838;23;20091;-71
2022/07/18 00:51:00;;;;;;;4.97;4.78;;;;;;;15.62;71.64;101852.50;6110446;23;20085;-72
2022/07/18 00:53:27;;;;;;;6.10;5.80;;;;;;;15.88;72.14;101951.69;6108318;23;20040;-72
2022/07/18 00:55:53;;;;;;;5.30;5.10;;;;;;;15.89;71.66;101886.34;6105605;23;20026;-72
2022/07/18 00:58:20;;;;;;;6.13;5.82;;;;;;;15.48;71.86;101810.94;6103049;23;20039;-72
2022/07/18 01:03:32;;;;;;;4.90;4.70;;;;;;;15.49;72.34;101804.69;6090941;23;20104;-72
2022/07/18 01:05:59;;;;;;;5.00;4.80;;;;;;;15.88;72.27;101876.72;6113929;23;20028;-71
2022/07/18 01:08:26;;;;;;;6.00;5.70;;;;;;;15.64;71.59;101796.88;6082835;23;20458;-72
2022/07/18 01:10:54;;;;;;;5.47;5.22;;;;;;;15.54;71.35;101807.94;6115296;23;20081;-72
2022/07/18 01:13:21;;;;;;;6.38;6.07;;;;;;;15.88;72.02;101863.50;6081813;23;20018;-72
2022/07/18 01:15:47;;;;;;;5.22;5.03;;;;;;;15.89;71.46;101868.69;6110721;23;20753;-73
2022/07/18 01:18:14;;;;;;;6.10;5.80;;;;;;;15.89;71.73;101858.09;6088315;23;20344;-70
2022/07/18 01:20:40;;;;;;;4.80;4.60;;;;;;;15.35;71.52;101751.69;6112832;23;20544;-72
2022/07/18 01:23:07;;;;;;;5.00;4.80;;;;;;;15.78;70.88;101836.69;6116443;23;20367;-73
2022/07/18 01:25:34;;;;;;;5.05;4.82;;;;;;;15.43;69.99;101796.25;6114292;23;20360;-71
2022/07/18 01:28:00;;;;;;;5.15;4.95;;;;;;;15.81;70.05;101847.06;6119833;23;20024;-72
2022/07/18 01:30:27;;;;;;;5.97;5.68;;;;;;;15.83;70.51;101855.78;6108445;23;20020;-71
2022/07/18 01:32:58;;;;;;;4.88;4.68;;;;;;;15.71;71.76;101861.72;6111990;23;20041;-72
2022/07/18 01:35:26;;;;;;;6.30;6.00;;;;;;;15.59;72.09;101839.44;6117780;23;20013;-72
2022/07/18 01:37:55;;;;;;;4.90;4.70;;;;;;;15.52;72.75;101835.44;6112015;23;20048;-71
2022/07/18 01:40:22;;;;;;;6.30;6.00;;;;;;;15.42;72.22;101848.31;6102052;23;20029;-73
2022/07/18 01:42:49;;;;;;;4.63;4.43;;;;;;;15.20;72.71;101890.06;6117384;23;20029;-72
2022/07/18 01:45:16;;;;;;;5.68;5.47;;;;;;;15.28;72.95;101858.78;6110130;23;20028;-72
2022/07/18 01:47:43;;;;;;;5.28;4.90;;;;;;;14.75;75.46;101906.44;6112825;23;20016;-71
2022/07/18 01:50:11;;;;;;;6.78;6.47;;;;;;;15.18;74.96;101868.16;6108612;23;20025;-71
2022/07/18 01:52:38;;;;;;;4.82;4.63;;;;;;;15.15;75.35;101930.84;6105802;23;20442;-73
2022/07/18 01:55:07;;;;;;;5.00;4.80;;;;;;;14.68;75.36;101753.56;6089042;23;20042;-73
2022/07/18 01:57:35;;;;;;;4.95;4.75;;;;;;;14.61;74.84;101787.38;6081030;23;20032;-72
2022/07/18 02:00:03;;;;;;;4.97;4.78;;;;;;;14.91;74.96;101934.72;6080073;23;20024;-73
2022/07/18 02:02:30;;;;;;;4.90;4.70;;;;;;;15.00;75.17;101865.53;6076381;23;20462;-71
2022/07/18 02:04:59;;;;;;;5.00;4.80;;;;;;;14.61;75.26;101763.59;6082860;23;20018;-72
2022/07/18 02:07:36;;;;;;;6.28;5.97;;;;;;;14.90;75.34;101970.03;6085914;23;20049;-73
2022/07/18 02:10:07;;;;;;;5.00;4.80;;;;;;;14.83;76.18;101863.75;6085189;23;20043;-71
2022/07/18 02:12:33;;;;;;;4.97;4.78;;;;;;;14.63;75.76;101837.50;6086775;23;20639;-72
2022/07/18 02:15:00;;;;;;;4.90;4.70;;;;;;;14.55;76.14;101816.69;6087465;23;20022;-73
2022/07/18 02:17:27;;;;;;;4.80;4.60;;;;;;;14.76;76.62;101863.22;6071860;23;20769;-72
2022/07/18 02:19:54;;;;;;;4.78;4.57;;;;;;;14.27;77.15;101802.28;6091392;23;20042;-74
2022/07/18 02:22:20;;;;;;;6.60;6.30;;;;;;;14.74;76.79;101840.44;6081182;23;20021;-74
2022/07/18 02:24:47;;;;;;;4.80;4.60;;;;;;;14.73;76.95;101863.38;6089743;23;20093;-72
2022/07/18 02:27:13;;;;;;;5.35;5.15;;;;;;;13.83;77.13;101686.59;6081912;23;20030;-72
2022/07/18 02:29:40;;;;;;;4.90;4.70;;;;;;;14.29;77.34;101778.41;6089911;23;20010;-72
2022/07/18 02:32:06;;;;;;;4.75;4.55;;;;;;;14.76;76.77;101859.72;6104866;23;20764;-72
2022/07/18 02:34:32;;;;;;;4.80;4.60;;;;;;;14.75;77.88;101850.06;6086637;23;20018;-73
2022/07/18 02:36:59;;;;;;;4.80;4.60;;;;;;;14.14;77.48;101775.63;6083027;23;20046;-73
2022/07/18 02:39:26;;;;;;;6.15;5.85;;;;;;;14.17;77.59;101729.72;6084151;23;20046;-71
2022/07/18 02:41:53;;;;;;;5.05;4.85;;;;;;;14.60;77.22;101827.09;6071613;23;20462;-70
2022/07/18 02:44:19;;;;;;;5.65;5.35;;;;;;;14.65;77.20;101854.13;6085758;23;20074;-72
2022/07/18 02:46:46;;;;;;;4.70;4.50;;;;;;;14.44;77.15;101824.34;6080504;23;21355;-73
2022/07/18 02:49:27;;;;;;;5.45;5.22;;;;;;;14.56;77.00;101848.38;6082197;23;20005;-74
2022/07/18 02:51:56;;;;;;;5.07;4.88;;;;;;;13.96;76.83;101840.72;6074190;23;20085;-73
2022/07/18 02:54:24;;;;;;;6.53;6.22;;;;;;;14.51;77.14;101831.00;6092044;23;20048;-72
2022/07/18 02:56:51;;;;;;;4.95;4.75;;;;;;;14.33;77.51;101828.38;6102745;23;20019;-72
2022/07/18 02:59:17;;;;;;;6.38;6.07;;;;;;;14.42;77.71;101842.91;6074785;23;20022;-72
2022/07/18 03:01:44;;;;;;;4.72;4.53;;;;;;;14.37;77.56;101844.91;6113972;23;20022;-73
2022/07/18 03:04:11;;;;;;;5.00;4.80;;;;;;;13.69;78.03;101718.91;6106093;23;20006;-73
2022/07/18 03:06:37;;;;;;;4.80;4.60;;;;;;;14.44;78.41;101880.66;6107352;23;20023;-73
2022/07/18 03:09:04;;;;;;;4.70;4.50;;;;;;;14.45;78.40;101844.53;6115448;23;20530;-73
2022/07/18 03:11:30;;;;;;;4.70;4.50;;;;;;;14.09;78.92;101811.09;6107249;23;20014;-72
2022/07/18 03:13:57;;;;;;;5.47;5.10;;;;;;;14.41;78.79;101914.28;6114599;23;20020;-74
2022/07/18 03:16:25;;;;;;;6.25;5.95;;;;;;;14.40;80.24;101926.63;6082305;23;20014;-74
2022/07/18 03:18:52;;;;;;;4.80;4.60;;;;;;;14.34;81.73;101853.84;6112792;23;20009;-71
2022/07/18 03:21:18;;;;;;;5.95;5.65;;;;;;;13.77;81.77;101737.88;6114505;23;20710;-73
2022/07/18 03:23:45;;;;;;;4.95;4.65;;;;;;;13.80;82.42;101780.84;6107909;23;20018;-72
2022/07/18 03:26:11;;;;;;;5.25;5.00;;;;;;;14.23;82.49;101832.41;6113067;23;20656;-72
2022/07/18 03:28:37;;;;;;;4.60;4.40;;;;;;;13.85;81.98;101798.19;6089800;23;20026;-73
2022/07/18 03:31:05;;;;;;;5.35;5.13;;;;;;;14.19;82.42;101844.03;6111077;23;20047;-73
2022/07/18 03:33:32;;;;;;;5.00;4.80;;;;;;;14.19;81.47;101836.09;6108170;23;20030;-73
2022/07/18 03:35:58;;;;;;;4.90;4.70;;;;;;;14.10;81.24;101831.28;6086253;23;20013;-73
2022/07/18 03:38:25;;;;;;;6.50;6.15;;;;;;;13.45;80.62;101792.16;6110082;23;20034;-72
2022/07/18 03:40:51;;;;;;;4.88;4.68;;;;;;;13.60;80.59;101705.31;6098833;23;20013;-71
2022/07/18 03:43:17;;;;;;;6.22;5.93;;;;;;;13.99;80.52;101780.81;6099718;23;20025;-70
2022/07/18 03:45:44;;;;;;;4.63;4.43;;;;;;;13.95;79.33;101838.16;6081493;23;20089;-71
2022/07/18 03:48:12;;;;;;;5.07;4.88;;;;;;;14.11;79.04;101764.34;6101359;23;20026;-69
2022/07/18 03:50:38;;;;;;;4.70;4.50;;;;;;;14.52;78.38;101838.84;6105270;23;20041;-71
2022/07/18 03:53:05;;;;;;;4.85;4.65;;;;;;;14.50;77.74;101830.16;6111091;23;20057;-69
2022/07/18 03:55:31;;;;;;;4.80;4.60;;;;;;;14.53;77.25;101813.28;6109422;23;20055;-70
2022/07/18 03:57:57;;;;;;;4.90;4.70;;;;;;;14.40;77.03;101791.09;6110797;23;20022;-71
2022/07/18 04:00:24;;;;;;;6.05;5.75;;;;;;;13.65;76.40;101671.66;6100265;23;20545;-69
2022/07/18 04:02:50;;;;;;;4.72;4.53;;;;;;;14.82;76.13;101872.63;6108757;23;20041;-73
2022/07/18 04:05:17;;;;;;;5.50;5.30;;;;;;;14.61;76.52;101900.97;6071872;23;20392;-71
2022/07/18 04:07:44;;;;;;;4.88;4.68;;;;;;;14.85;76.51;101824.03;6106038;23;20556;-70
2022/07/18 04:10:11;;;;;;;5.03;4.82;;;;;;;14.52;76.85;101791.31;6115406;23;20084;-70
2022/07/18 04:12:49;;;;;;;4.88;4.68;;;;;;;14.88;76.84;101850.31;6106073;23;20029;-71
2022/07/18 04:15:16;;;;;;;5.72;5.53;;;;;;;14.96;76.08;101853.41;6102814;23;20014;-71
2022/07/18 04:17:43;;;;;;;4.75;4.55;;;;;;;15.19;76.18;101859.25;6112531;23;20005;-71
2022/07/18 04:20:10;;;;;;;4.72;4.53;;;;;;;15.63;74.66;101864.78;6108537;23;20513;-71
2022/07/18 04:22:54;;;;;;;4.70;4.50;;;;;;;16.18;72.50;101871.50;6087871;23;20486;-70
2022/07/18 04:25:23;;;;;;;6.05;5.75;;;;;;;16.75;70.19;101862.88;6103145;23;20009;-70
2022/07/18 04:27:49;;;;;;;5.78;5.28;;;;;;;17.05;68.21;101836.34;6105132;23;20019;-71
2022/07/18 04:30:18;;;;;;;6.00;5.70;;;;;;;17.63;66.10;101857.53;6113417;23;20080;-69
2022/07/18 04:32:45;;;;;;;5.00;4.80;;;;;;;18.19;64.13;101876.94;6105509;23;20081;-71
2022/07/18 04:35:18;;;;;;;6.60;6.30;;;;;;;18.48;62.80;101874.16;6106966;23;20458;-71
2022/07/18 04:37:45;;;;;;;5.45;5.15;;;;;;;18.79;61.55;101874.75;6114848;23;20467;-70
2022/07/18 04:40:11;;;;;;;5.53;5.22;;;;;;;18.95;59.96;101816.91;6088997;23;20021;-71
2022/07/18 04:42:38;;;;;;;5.22;5.03;;;;;;;19.37;58.41;101800.69;6101330;23;20041;-73
2022/07/18 04:45:05;;;;;;;5.65;5.38;;;;;;;20.24;56.50;101870.72;6092947;23;20475;-71
2022/07/18 04:47:31;;;;;;;5.30;5.10;;;;;;;19.57;53.48;101767.31;6113148;23;20013;-71
2022/07/18 04:49:58;;;;;;;5.13;4.93;;;;;;;19.84;53.76;101815.03;6066735;23;20016;-71
2022/07/18 04:52:24;;;;;;;6.35;6.05;;;;;;;18.87;52.85;101643.72;6089786;23;20603;-72
2022/07/18 04:54:51;;;;;;;5.13;4.93;;;;;;;20.60;52.02;101869.78;6116206;23;20017;-70
2022/07/18 04:57:18;;;;;;;6.47;6.18;;;;;;;20.93;51.53;101857.50;6111955;23;20405;-73
2022/07/18 04:59:45;;;;;;;5.57;5.30;;;;;;;21.27;51.22;101865.53;6108262;23;20020;-73
2022/07/18 05:02:12;;;;;;;6.00;5.72;;;;;;;21.21;49.75;101863.31;6105524;23;20042;-69
2022/07/18 05:04:39;;;;;;;5.28;5.07;;;;;;;21.27;48.77;101858.38;6115072;23;20032;-70
2022/07/18 05:07:06;;;;;;;5.57;5.28;;;;;;;21.21;48.27;101799.25;6119632;23;20036;-70
2022/07/18 05:09:33;;;;;;;5.47;5.20;;;;;;;22.37;46.34;101849.53;6114162;23;20688;-69
2022/07/18 05:12:00;;;;;;;5.35;5.13;;;;;;;22.37;45.07;101831.69;6120009;23;20105;-69
2022/07/18 05:14:26;;;;;;;6.75;6.35;;;;;;;22.73;44.32;101813.44;6084179;23;20064;-70
2022/07/18 05:16:53;;;;;;;5.40;5.20;;;;;;;23.32;43.51;101860.13;6111502;23;20024;-73
2022/07/18 05:19:19;;;;;;;6.53;6.22;;;;;;;23.22;43.14;101824.44;6116102;23;20040;-72
2022/07/18 05:21:46;;;;;;;5.40;5.20;;;;;;;23.65;42.58;101829.50;6089391;23;20091;-73
2022/07/18 05:24:13;;;;;;;6.43;6.13;;;;;;;23.50;42.54;101845.09;6107950;23;20017;-73
2022/07/18 05:26:39;;;;;;;5.68;5.38;;;;;;;23.49;42.94;101792.50;6115394;23;20079;-72
2022/07/18 05:29:06;;;;;;;5.72;5.30;;;;;;;24.13;41.97;101835.06;6120476;23;20038;-74
2022/07/18 05:31:33;;;;;;;6.18;5.88;;;;;;;23.84;40.33;101799.22;6111530;23;20585;-70
2022/07/18 05:33:59;;;;;;;5.93;5.63;;;;;;;23.25;41.59;101765.22;6109274;23;20041;-71
2022/07/18 05:36:26;;;;;;;6.55;6.25;;;;;;;23.06;42.58;101744.59;6089824;23;20014;-71
2022/07/18 05:38:52;;;;;;;5.65;5.38;;;;;;;23.71;42.04;101841.47;6077711;23;20092;-72
2022/07/18 05:41:19;;;;;;;6.78;6.47;;;;;;;24.24;40.77;101848.34;6113668;23;20463;-70
2022/07/18 05:43:45;;;;;;;5.45;5.25;;;;;;;24.18;39.57;101796.09;6106851;23;20093;-74
2022/07/18 05:46:11;;;;;;;6.00;5.70;;;;;;;24.71;39.06;101855.66;6078352;23;20030;-71
2022/07/18 05:48:43;;;;;;;5.40;5.20;;;;;;;24.90;37.82;101801.91;6108597;23;20005;-71
2022/07/18 05:51:10;;;;;;;6.07;5.78;;;;;;;24.84;37.51;101813.25;6113076;23;20026;-70
2022/07/18 05:53:36;;;;;;;5.63;5.43;;;;;;;24.92;38.66;101837.53;6109088;23;20554;-72
2022/07/18 05:56:03;;;;;;;6.00;5.60;;;;;;;24.79;37.60;101794.03;6109919;23;20037;-71
2022/07/18 05:58:30;;;;;;;5.28;5.07;;;;;;;24.80;38.10;101827.97;6106180;23;20029;-72
2022/07/18 06:00:56;;;;;;;5.25;5.05;;;;;;;24.22;37.70;101729.63;6101571;23;20035;-72
2022/07/18 06:03:23;;;;;;;6.70;6.40;;;;;;;24.39;37.77;101741.41;6100129;23;20073;-70
2022/07/18 06:05:49;;;;;;;5.43;5.22;;;;;;;25.01;38.29;101825.88;6119512;23;20025;-71
2022/07/18 06:08:23;;;;;;;6.55;6.25;;;;;;;24.01;38.04;101735.97;6101229;23;20027;-73
2022/07/18 06:10:49;;;;;;;5.70;5.45;;;;;;;24.80;37.17;101817.22;6105823;23;20025;-71
2022/07/18 06:13:16;;;;;;;6.72;6.43;;;;;;;24.22;38.02;101792.16;6104623;23;20017;-72
2022/07/18 06:15:42;;;;;;;5.80;5.50;;;;;;;23.32;39.68;101777.09;6081562;23;20026;-71
2022/07/18 06:18:09;;;;;;;5.80;5.50;;;;;;;23.28;40.62;101770.31;6093309;23;20033;-71
2022/07/18 06:20:35;;;;;;;5.70;5.40;;;;;;;24.05;39.27;101803.59;6015201;23;20446;-71
2022/07/18 06:23:02;;;;;;;5.88;5.57;;;;;;;23.91;38.68;101794.13;6097204;23;20929;-73
2022/07/18 06:25:28;;;;;;;6.30;5.80;;;;;;;23.66;39.41;101755.28;6106463;23;20021;-74
2022/07/18 06:27:55;;;;;;;5.82;5.53;;;;;;;23.14;39.09;101712.63;6097669;23;20027;-72
2022/07/18 06:30:23;;;;;;;6.80;6.50;;;;;;;22.61;40.01;101680.72;6079403;23;20039;-72
2022/07/18 06:32:49;;;;;;;5.93;5.63;;;;;;;22.82;40.73;101694.06;6100581;23;20455;-71
2022/07/18 06:35:15;;;;;;;6.43;6.13;;;;;;;23.38;41.04;101778.38;6086110;23;20034;-72
2022/07/18 06:37:42;;;;;;;5.65;5.28;;;;;;;23.23;40.06;101780.56;6079073;23;20010;-71
2022/07/18 06:40:09;;;;;;;5.63;5.38;;;;;;;22.90;40.93;101772.69;6093385;23;20029;-71
2022/07/18 06:42:35;;;;;;;5.40;5.20;;;;;;;23.06;41.06;101772.22;6082307;23;20021;-71
2022/07/18 06:45:03;;;;;;;5.40;5.20;;;;;;;22.99;41.61;101759.47;6098459;23;20026;-70
2022/07/18 06:47:37;;;;;;;5.70;5.40;;;;;;;23.05;41.19;101765.19;6104890;23;20019;-72
2022/07/18 06:50:04;;;;;;;5.63;5.32;;;;;;;22.84;41.42;101737.59;6107571;23;20029;-70
2022/07/18 06:52:30;;;;;;;6.10;5.80;;;;;;;22.96;41.18;101739.19;6107280;23;20092;-72
2022/07/18 06:54:57;;;;;;;6.00;5.70;;;;;;;23.05;41.53;101765.19;6111332;23;20025;-71
2022/07/18 06:57:23;;;;;;;6.80;6.47;;;;;;;23.17;40.95;101757.88;6097454;23;20053;-71
2022/07/18 06:59:50;;;;;;;5.53;5.18;;;;;;;22.84;41.06;101741.09;6083509;23;20029;-71
2022/07/18 07:02:24;;;;;;;5.80;5.50;;;;;;;22.48;41.72;101681.78;6082597;23;20025;-70
2022/07/18 07:04:50;;;;;;;5.38;5.18;;;;;;;22.89;41.34;101709.44;6112784;23;20080;-72
2022/07/18 07:07:17;;;;;;;6.38;6.07;;;;;;;23.43;40.22;101777.00;6108532;23;20100;-72
2022/07/18 07:09:44;;;;;;;5.30;5.10;;;;;;;22.99;40.08;101711.28;6112067;23;20021;-72
2022/07/18 07:12:11;;;;;;;5.82;5.53;;;;;;;23.19;40.08;101742.50;6106961;23;20387;-71
2022/07/18 07:14:37;;;;;;;5.80;5.50;;;;;;;23.45;39.72;101772.34;6106317;23;20063;-71
2022/07/18 07:17:04;;;;;;;5.40;5.10;;;;;;;23.46;39.86;101771.34;6109953;23;20031;-71
2022/07/18 07:19:31;;;;;;;5.75;5.45;;;;;;;23.33;40.94;101714.47;6107210;23;20570;-71
2022/07/18 07:21:57;;;;;;;5.70;5.40;;;;;;;23.62;40.54;101759.25;6087800;23;20585;-69
2022/07/18 07:24:24;;;;;;;7.13;6.82;;;;;;;23.79;38.68;101752.34;6105290;23;20017;-70
2022/07/18 07:26:50;;;;;;;5.55;5.25;;;;;;;23.39;40.01;101681.78;6111284;23;20013;-71
2022/07/18 07:29:22;;;;;;;6.45;6.15;;;;;;;24.25;40.03;101786.47;6103316;23;20348;-71
2022/07/18 07:31:48;;;;;;;5.50;5.30;;;;;;;24.45;39.76;101779.25;6103473;23;20017;-70
2022/07/18 07:34:15;;;;;;;6.82;6.53;;;;;;;24.38;38.75;101726.34;6103895;23;20663;-72
2022/07/18 07:36:42;;;;;;;5.35;5.15;;;;;;;24.61;39.00;101751.00;6078689;23;20030;-71
2022/07/18 07:39:08;;;;;;;5.30;5.10;;;;;;;24.57;38.86;101737.00;6081765;23;20024;-71
2022/07/18 07:41:35;;;;;;;5.70;5.40;;;;;;;24.80;37.93;101758.97;6078518;23;20030;-70
2022/07/18 07:44:01;;;;;;;5.50;5.20;;;;;;;24.87;38.33;101757.38;6081298;23;20012;-72
2022/07/18 07:46:28;;;;;;;6.55;6.25;;;;;;;23.45;37.78;101533.03;6110792;23;20025;-71
2022/07/18 07:48:54;;;;;;;5.50;5.20;;;;;;;24.58;38.83;101716.41;6075131;23;20071;-72
2022/07/18 07:51:21;;;;;;;6.47;6.18;;;;;;;24.62;37.78;101704.38;6111113;23;20032;-71
2022/07/18 07:53:51;;;;;;;5.45;5.25;;;;;;;24.88;37.30;101748.34;6103696;23;20055;-72
2022/07/18 07:56:19;;;;;;;7.05;6.65;;;;;;;24.84;38.03;101741.59;6083848;23;20047;-72
2022/07/18 07:58:46;;;;;;;5.75;5.45;;;;;;;24.77;37.73;101720.84;6090197;23;20407;-71
2022/07/18 08:01:14;;;;;;;5.43;5.20;;;;;;;25.05;38.14;101735.94;6109648;23;20471;-73
2022/07/18 08:03:41;;;;;;;5.68;5.13;;;;;;;24.79;37.73;101700.91;6075275;23;20141;-70
2022/07/18 08:06:08;;;;;;;5.32;5.13;;;;;;;25.16;38.21;101721.50;6110345;23;20048;-70
2022/07/18 08:08:34;;;;;;;5.32;5.13;;;;;;;25.33;37.02;101744.03;6105113;23;20054;-70
2022/07/18 08:11:00;;;;;;;5.60;5.40;;;;;;;25.02;37.07;101674.50;6109176;23;20027;-70
2022/07/18 08:13:27;;;;;;;5.32;5.13;;;;;;;25.56;36.83;101739.06;6099834;23;20282;-71
2022/07/18 08:15:53;;;;;;;5.40;5.20;;;;;;;25.26;37.58;101673.09;6105796;23;20268;-71
2022/07/18 08:18:20;;;;;;;6.68;6.38;;;;;;;25.27;37.29;101666.72;6091251;23;20038;-70
2022/07/18 08:20:46;;;;;;;5.32;5.13;;;;;;;25.98;36.82;101756.44;6110458;23;20505;-70
2022/07/18 08:23:12;;;;;;;6.43;6.13;;;;;;;25.73;35.98;101669.31;6094668;23;20035;-70
2022/07/18 08:25:41;;;;;;;5.30;5.10;;;;;;;25.78;36.27;101653.53;6070214;23;20347;-71
2022/07/18 08:28:08;;;;;;;5.57;5.30;;;;;;;26.26;35.39;101736.47;6080549;23;20039;-71
2022/07/18 08:30:35;;;;;;;5.70;5.30;;;;;;;26.46;36.38;101745.19;6071694;23;20014;-71
2022/07/18 08:33:02;;;;;;;5.80;5.50;;;;;;;26.71;35.76;101749.91;6108437;23;20010;-70
2022/07/18 08:35:30;;;;;;;6.53;6.22;;;;;;;26.71;35.06;101745.34;6069174;23;20117;-70
2022/07/18 08:37:56;;;;;;;5.70;5.30;;;;;;;26.76;35.03;101736.78;6101682;23;20020;-70
2022/07/18 08:40:23;;;;;;;6.05;5.75;;;;;;;26.07;34.52;101588.72;6083639;23;20042;-70
2022/07/18 08:42:51;;;;;;;5.50;5.30;;;;;;;26.78;34.99;101729.38;6100253;23;20010;-70
2022/07/18 08:45:41;;;;;;;5.63;5.10;;;;;;;26.71;35.05;101679.88;6094660;23;20230;-71
2022/07/18 08:48:08;;;;;;;5.60;5.30;;;;;;;25.91;35.63;101530.28;6099841;23;20578;-71
2022/07/18 08:50:35;;;;;;;5.53;5.30;;;;;;;26.79;34.57;101678.06;6105843;23;20031;-71
2022/07/18 08:53:02;;;;;;;5.60;5.40;;;;;;;27.47;34.49;101734.69;6107573;23;20096;-71
2022/07/18 08:55:28;;;;;;;6.97;6.57;;;;;;;27.65;34.86;101733.53;6107509;23;20325;-71
2022/07/18 08:57:55;;;;;;;5.78;5.47;;;;;;;27.81;33.70;101735.38;6099338;23;20052;-72
2022/07/18 09:00:22;;;;;;;6.97;6.68;;;;;;;27.87;32.94;101731.22;6093386;23;20255;-71
2022/07/18 09:03:03;;;;;;;5.53;5.30;;;;;;;27.90;33.47;101714.66;6080560;23;20365;-71
2022/07/18 09:05:31;;;;;;;5.70;5.40;;;;;;;27.71;32.97;101653.81;6096193;23;20080;-73
2022/07/18 09:08:19;;;;;;;5.78;5.50;;;;;;;28.41;33.33;101723.38;6110492;23;20105;-71
2022/07/18 09:10:52;;;;;;;5.47;5.28;;;;;;;28.11;32.25;101679.06;6103333;23;20351;-71
2022/07/18 09:13:22;;;;;;;7.15;6.75;;;;;;;28.33;32.32;101709.91;6098802;23;20101;-71
2022/07/18 09:16:10;;;;;;;5.55;5.25;;;;;;;28.62;32.88;101727.38;6068105;23;20026;-70
2022/07/18 09:18:43;;;;;;;5.70;5.40;;;;;;;27.73;32.18;101567.34;6096166;23;20037;-72
2022/07/18 09:21:11;;;;;;;6.45;5.80;;;;;;;29.01;32.18;101729.28;6104958;23;20323;-70
2022/07/18 09:23:41;;;;;;;5.70;5.40;;;;;;;28.77;30.88;101690.53;6102856;23;20021;-71
2022/07/18 09:26:09;;;;;;;5.60;5.40;;;;;;;29.15;30.74;101765.56;6067724;23;20025;-71
2022/07/18 09:28:51;;;;;;;5.70;5.40;;;;;;;28.88;31.80;101680.34;6103907;23;20022;-70
2022/07/18 09:31:37;;;;;;;5.30;5.10;;;;;;;28.80;29.84;101662.31;6102311;23;20272;-72
2022/07/18 09:34:05;;;;;;;5.65;5.40;;;;;;;28.84;30.54;101669.03;6103493;23;20500;-71
2022/07/18 09:36:36;;;;;;;6.00;5.70;;;;;;;29.07;30.38;101704.22;6081443;23;20473;-70
2022/07/18 09:39:17;;;;;;;6.00;5.70;;;;;;;28.54;30.33;101600.50;6104586;23;20013;-71
2022/07/18 09:41:43;;;;;;;5.80;5.50;;;;;;;29.67;30.71;101732.44;6106929;23;20017;-70
2022/07/18 09:44:17;;;;;;;5.43;5.22;;;;;;;29.86;29.49;101741.94;6111355;23;20037;-72
2022/07/18 09:47:03;;;;;;;5.80;5.50;;;;;;;29.98;28.53;101740.47;6107119;23;20006;-72
2022/07/18 09:49:40;;;;;;;5.90;5.60;;;;;;;30.10;28.75;101740.03;6072022;23;20442;-72
2022/07/18 09:52:08;;;;;;;5.55;5.35;;;;;;;28.82;28.00;101574.66;6112058;23;20018;-71
2022/07/18 09:54:43;;;;;;;5.88;5.57;;;;;;;30.16;28.88;101723.88;6073065;23;20037;-71
2022/07/18 09:57:23;;;;;;;6.10;5.72;;;;;;;30.22;28.80;101697.94;6069242;23;20050;-72
2022/07/18 09:59:50;;;;;;;5.65;5.40;;;;;;;29.06;28.86;101599.00;6068057;23;20526;-70
2022/07/18 10:02:16;;;;;;;6.57;6.28;;;;;;;29.65;27.22;101674.97;6067166;23;20022;-71
2022/07/18 10:04:44;;;;;;;5.45;5.25;;;;;;;30.34;27.55;101714.59;6112959;23;20266;-71
2022/07/18 10:07:11;;;;;;;5.47;5.20;;;;;;;30.17;26.76;101651.63;6078789;23;20038;-71
2022/07/18 10:09:38;;;;;;;5.95;5.65;;;;;;;30.21;25.35;101666.50;6082010;23;20038;-72
2022/07/18 10:12:05;;;;;;;5.47;5.28;;;;;;;30.75;25.61;101717.69;6100221;23;20049;-71
2022/07/18 10:14:32;;;;;;;5.95;5.65;;;;;;;30.27;24.90;101572.81;6066889;23;20021;-71
2022/07/18 10:16:59;;;;;;;5.80;5.50;;;;;;;30.75;25.22;101678.88;6077437;23;20217;-71
2022/07/18 10:19:26;;;;;;;6.65;6.35;;;;;;;30.27;27.35;101624.25;6048892;23;20010;-72
2022/07/18 10:21:54;;;;;;;5.70;5.40;;;;;;;30.61;25.65;101665.19;6082524;23;20097;-71
2022/07/18 10:24:24;;;;;;;6.00;5.70;;;;;;;31.15;23.96;101711.91;6080953;23;20032;-71
2022/07/18 10:27:11;;;;;;;5.40;5.20;;;;;;;31.35;24.83;101720.25;6079204;23;20018;-72
2022/07/18 10:29:38;;;;;;;5.57;5.35;;;;;;;31.30;24.44;101672.03;6070366;23;20193;-71
2022/07/18 10:32:07;;;;;;;5.50;5.30;;;;;;;31.36;24.59;101663.09;6075944;23;20099;-70
2022/07/18 10:34:36;;;;;;;5.80;5.50;;;;;;;31.73;25.10;101715.47;6065957;23;20037;-73
2022/07/18 10:37:06;;;;;;;5.80;5.50;;;;;;;31.61;23.98;101711.56;6085418;23;20021;-71
2022/07/18 10:39:38;;;;;;;5.60;5.30;;;;;;;31.70;24.93;101707.69;6078085;23;20002;-72
2022/07/18 10:42:08;;;;;;;5.93;5.63;;;;;;;31.76;25.30;101706.06;6073500;23;20127;-73
2022/07/18 10:44:36;;;;;;;5.60;5.30;;;;;;;31.62;24.77;101680.69;6080028;23;20347;-71
2022/07/18 10:47:17;;;;;;;5.40;5.20;;;;;;;31.72;22.62;101704.78;6075059;23;20095;-70
2022/07/18 10:49:46;;;;;;;5.90;5.60;;;;;;;31.65;25.55;101701.16;6075003;23;20104;-71
2022/07/18 10:52:25;;;;;;;6.63;6.28;;;;;;;31.97;25.45;101697.91;6078077;23;20092;-73
2022/07/18 10:57:37;;;;;;;5.80;5.50;;;;;;;31.98;24.66;101696.00;6104896;23;20009;-73
2022/07/18 11:00:08;;;;;;;5.68;5.47;;;;;;;32.07;24.85;101694.84;6102074;23;20030;-72
2022/07/18 11:02:43;;;;;;;5.97;5.68;;;;;;;32.04;23.72;101695.25;6100393;23;20016;-72
2022/07/18 11:05:43;;;;;;;5.80;5.50;;;;;;;32.15;23.18;101686.53;6094145;23;20032;-72
2022/07/18 11:08:12;;;;;;;5.72;5.43;;;;;;;32.00;23.53;101688.53;6062334;23;20081;-72
2022/07/18 11:10:50;;;;;;;5.85;5.55;;;;;;;31.35;23.39;101538.50;6107404;23;20536;-71
2022/07/18 11:13:41;;;;;;;6.53;6.22;;;;;;;32.01;22.45;101644.03;6092571;23;20026;-70
2022/07/18 11:16:12;;;;;;;5.47;5.27;;;;;;;31.97;23.52;101621.00;6068897;23;20028;-71
2022/07/18 11:18:39;;;;;;;6.32;5.93;;;;;;;32.40;23.33;101678.75;6106041;23;20081;-75
2022/07/18 11:21:38;;;;;;;5.82;5.53;;;;;;;32.62;24.49;101681.41;6104462;23;20020;-72
2022/07/18 11:24:08;;;;;;;5.80;5.50;;;;;;;32.78;24.52;101669.34;6101124;23;20070;-71
2022/07/18 11:26:42;;;;;;;6.28;5.88;;;;;;;32.42;22.82;101656.00;6109226;23;20054;-72
2022/07/18 11:29:12;;;;;;;5.47;5.22;;;;;;;32.46;22.84;101605.63;6073887;23;20109;-71
2022/07/18 11:31:49;;;;;;;6.00;5.68;;;;;;;32.94;23.37;101668.13;6111830;23;20033;-73
2022/07/18 11:34:16;;;;;;;5.70;5.40;;;;;;;32.55;23.33;101616.13;6106778;23;20032;-72
2022/07/18 11:36:46;;;;;;;6.05;5.75;;;;;;;33.04;23.46;101648.66;6059688;23;20044;-73